FCYMT OPMF-VIBR
Flight info
| Callsign | FCYMT |
|---|---|
| Flight time | 1h 9m |
| Altitude | 17500 |
| Route | 3418N07333E ORIVU PANLA DALBO ATNUS BOMAB KNG 3158N07707E 3156N07707E 3154N07708E |
| Aircraft | PC12/L-SDFGRWY/S |
Departure
| Time | 2026-05-06 18:49 |
|---|---|
| Airport | Muzaffarabad Airport (OPMF) |
Arrival
| Time | 2026-05-06 19:58 |
|---|---|
| Airport | Kullu Manali Airport (VIBR) |
| Time | Latitude | Longitude | Altitude | Speed | Heading |
|---|---|---|---|---|---|
| 2026-05-06 18:43 | 34.34067 | 73.50559 | 2765 ft | 0 kts | 36° |
| 2026-05-06 18:45 | 34.34068 | 73.50559 | 2766 ft | 1 kts | 26° |
| 2026-05-06 18:45 | 34.34105 | 73.50535 | 2763 ft | 10 kts | 317° |
| 2026-05-06 18:45 | 34.34139 | 73.50498 | 2763 ft | 1 kts | 13° |
| 2026-05-06 18:46 | 34.34141 | 73.50500 | 2763 ft | 0 kts | 47° |
| 2026-05-06 18:48 | 34.34141 | 73.50541 | 2762 ft | 13 kts | 120° |
| 2026-05-06 18:48 | 34.34003 | 73.50727 | 2765 ft | 58 kts | 131° |
| 2026-05-06 18:48 | 34.33612 | 73.51261 | 2857 ft | 104 kts | 129° |
| 2026-05-06 18:48 | 34.33033 | 73.51895 | 3106 ft | 124 kts | 135° |
| 2026-05-06 18:49 | 34.32445 | 73.52705 | 3443 ft | 138 kts | 132° |
| 2026-05-06 18:49 | 34.31674 | 73.53467 | 3627 ft | 147 kts | 142° |
| 2026-05-06 18:49 | 34.30823 | 73.54172 | 3700 ft | 156 kts | 147° |
| 2026-05-06 18:49 | 34.29887 | 73.54849 | 3777 ft | 158 kts | 149° |
| 2026-05-06 18:50 | 34.28936 | 73.55516 | 3842 ft | 157 kts | 146° |
| 2026-05-06 18:50 | 34.28023 | 73.56263 | 3915 ft | 162 kts | 143° |
| 2026-05-06 18:50 | 34.27095 | 73.57077 | 3986 ft | 165 kts | 140° |
| 2026-05-06 18:50 | 34.26129 | 73.57880 | 4003 ft | 172 kts | 149° |
| 2026-05-06 18:51 | 34.25164 | 73.58760 | 4004 ft | 176 kts | 136° |
| 2026-05-06 18:51 | 34.24213 | 73.59694 | 4009 ft | 176 kts | 139° |
| 2026-05-06 18:51 | 34.23330 | 73.60711 | 4002 ft | 174 kts | 129° |
| 2026-05-06 18:51 | 34.22572 | 73.61852 | 4003 ft | 175 kts | 126° |
| 2026-05-06 18:52 | 34.21819 | 73.63065 | 4009 ft | 188 kts | 128° |
| 2026-05-06 18:52 | 34.21062 | 73.64384 | 4014 ft | 194 kts | 123° |
| 2026-05-06 18:52 | 34.20261 | 73.65717 | 4075 ft | 202 kts | 129° |
| 2026-05-06 18:52 | 34.19193 | 73.66932 | 4052 ft | 216 kts | 141° |
| 2026-05-06 18:53 | 34.17946 | 73.67899 | 4503 ft | 210 kts | 156° |
| 2026-05-06 18:53 | 34.16546 | 73.68322 | 5146 ft | 205 kts | 177° |
| 2026-05-06 18:53 | 34.15137 | 73.68102 | 5691 ft | 209 kts | 190° |
| 2026-05-06 18:53 | 34.13719 | 73.68263 | 6330 ft | 202 kts | 161° |
| 2026-05-06 18:54 | 34.12444 | 73.69052 | 6845 ft | 208 kts | 147° |
| 2026-05-06 18:54 | 34.11213 | 73.69941 | 7488 ft | 204 kts | 152° |
| 2026-05-06 18:54 | 34.09924 | 73.70670 | 8209 ft | 198 kts | 158° |
| 2026-05-06 18:54 | 34.08758 | 73.71197 | 9564 ft | 157 kts | 159° |
| 2026-05-06 18:55 | 34.07765 | 73.71763 | 10155 ft | 175 kts | 160° |
| 2026-05-06 18:55 | 34.06415 | 73.72096 | 10162 ft | 209 kts | 174° |
| 2026-05-06 18:55 | 34.05056 | 73.72381 | 10825 ft | 192 kts | 167° |
| 2026-05-06 18:55 | 34.03626 | 73.72742 | 10683 ft | 227 kts | 169° |
| 2026-05-06 18:56 | 34.02026 | 73.73119 | 10699 ft | 241 kts | 169° |
| 2026-05-06 18:56 | 34.00316 | 73.73504 | 10700 ft | 257 kts | 170° |
| 2026-05-06 18:56 | 33.98525 | 73.73906 | 10698 ft | 264 kts | 169° |
| 2026-05-06 18:56 | 33.96703 | 73.74289 | 10694 ft | 267 kts | 172° |
| 2026-05-06 18:57 | 33.94860 | 73.74615 | 10678 ft | 268 kts | 170° |
| 2026-05-06 18:57 | 33.93066 | 73.75234 | 10676 ft | 268 kts | 158° |
| 2026-05-06 18:57 | 33.91390 | 73.76207 | 10670 ft | 266 kts | 152° |
| 2026-05-06 18:57 | 33.89770 | 73.77227 | 10674 ft | 268 kts | 153° |
| 2026-05-06 18:58 | 33.88068 | 73.78160 | 10674 ft | 270 kts | 157° |
| 2026-05-06 18:58 | 33.86344 | 73.79074 | 10673 ft | 271 kts | 152° |
| 2026-05-06 18:58 | 33.84850 | 73.80442 | 10682 ft | 271 kts | 133° |
| 2026-05-06 18:58 | 33.83733 | 73.82254 | 10678 ft | 270 kts | 117° |
| 2026-05-06 18:59 | 33.82867 | 73.84261 | 10685 ft | 270 kts | 115° |
| 2026-05-06 18:59 | 33.81999 | 73.86267 | 10685 ft | 270 kts | 116° |
| 2026-05-06 18:59 | 33.81126 | 73.88264 | 10684 ft | 270 kts | 116° |
| 2026-05-06 18:59 | 33.80252 | 73.90264 | 10682 ft | 271 kts | 116° |
| 2026-05-06 19:00 | 33.79375 | 73.92276 | 10694 ft | 272 kts | 116° |
| 2026-05-06 19:00 | 33.78493 | 73.94286 | 10712 ft | 272 kts | 116° |
| 2026-05-06 19:00 | 33.77615 | 73.96297 | 10689 ft | 271 kts | 115° |
| 2026-05-06 19:00 | 33.76742 | 73.98302 | 10693 ft | 271 kts | 116° |
| 2026-05-06 19:01 | 33.75866 | 74.00302 | 10693 ft | 270 kts | 116° |
| 2026-05-06 19:01 | 33.75013 | 74.02245 | 10803 ft | 251 kts | 116° |
| 2026-05-06 19:01 | 33.74224 | 74.04034 | 11046 ft | 233 kts | 115° |
| 2026-05-06 19:01 | 33.73499 | 74.05689 | 11285 ft | 215 kts | 114° |
| 2026-05-06 19:02 | 33.72836 | 74.07202 | 11506 ft | 193 kts | 114° |
| 2026-05-06 19:02 | 33.72238 | 74.08565 | 11774 ft | 179 kts | 114° |
| 2026-05-06 19:02 | 33.71668 | 74.09876 | 12012 ft | 175 kts | 114° |
| 2026-05-06 19:02 | 33.71110 | 74.11153 | 12249 ft | 171 kts | 114° |
| 2026-05-06 19:03 | 33.70559 | 74.12412 | 12516 ft | 172 kts | 113° |
| 2026-05-06 19:03 | 33.69984 | 74.13726 | 12786 ft | 182 kts | 114° |
| 2026-05-06 19:03 | 33.69389 | 74.15074 | 13064 ft | 183 kts | 114° |
| 2026-05-06 19:03 | 33.68794 | 74.16423 | 13345 ft | 182 kts | 114° |
| 2026-05-06 19:04 | 33.68210 | 74.17748 | 13612 ft | 177 kts | 114° |
| 2026-05-06 19:04 | 33.67497 | 74.18973 | 13884 ft | 183 kts | 128° |
| 2026-05-06 19:04 | 33.66627 | 74.20094 | 14137 ft | 184 kts | 129° |
| 2026-05-06 19:04 | 33.65742 | 74.21229 | 14398 ft | 188 kts | 129° |
| 2026-05-06 19:05 | 33.64842 | 74.22365 | 14682 ft | 187 kts | 129° |
| 2026-05-06 19:05 | 33.63946 | 74.23486 | 14941 ft | 185 kts | 129° |
| 2026-05-06 19:05 | 33.63061 | 74.24580 | 15194 ft | 185 kts | 132° |
| 2026-05-06 19:05 | 33.62075 | 74.25586 | 15454 ft | 187 kts | 137° |
| 2026-05-06 19:06 | 33.61050 | 74.26563 | 15694 ft | 189 kts | 137° |
| 2026-05-06 19:06 | 33.60016 | 74.27544 | 15963 ft | 190 kts | 137° |
| 2026-05-06 19:06 | 33.58972 | 74.28525 | 16231 ft | 191 kts | 137° |
| 2026-05-06 19:06 | 33.57919 | 74.29509 | 16511 ft | 192 kts | 137° |
| 2026-05-06 19:07 | 33.56897 | 74.30536 | 16783 ft | 190 kts | 129° |
| 2026-05-06 19:07 | 33.56046 | 74.31736 | 17071 ft | 189 kts | 123° |
| 2026-05-06 19:07 | 33.55234 | 74.32977 | 17346 ft | 190 kts | 123° |
| 2026-05-06 19:07 | 33.54410 | 74.34260 | 17503 ft | 204 kts | 122° |
| 2026-05-06 19:08 | 33.53505 | 74.35690 | 17511 ft | 226 kts | 122° |
| 2026-05-06 19:08 | 33.52526 | 74.37256 | 17518 ft | 244 kts | 123° |
| 2026-05-06 19:08 | 33.51477 | 74.38941 | 17513 ft | 258 kts | 123° |
| 2026-05-06 19:08 | 33.50395 | 74.40698 | 17509 ft | 265 kts | 122° |
| 2026-05-06 19:09 | 33.49295 | 74.42488 | 17508 ft | 268 kts | 122° |
| 2026-05-06 19:09 | 33.48184 | 74.44292 | 17512 ft | 270 kts | 123° |
| 2026-05-06 19:09 | 33.47077 | 74.46124 | 17508 ft | 273 kts | 123° |
| 2026-05-06 19:09 | 33.45969 | 74.47979 | 17508 ft | 274 kts | 122° |
| 2026-05-06 19:10 | 33.44878 | 74.49810 | 17503 ft | 274 kts | 122° |
| 2026-05-06 19:10 | 33.43769 | 74.51667 | 17491 ft | 274 kts | 122° |
| 2026-05-06 19:10 | 33.42659 | 74.53520 | 17489 ft | 273 kts | 122° |
| 2026-05-06 19:10 | 33.41550 | 74.55366 | 17490 ft | 273 kts | 123° |
| 2026-05-06 19:11 | 33.40442 | 74.57217 | 17496 ft | 274 kts | 122° |
| 2026-05-06 19:11 | 33.39332 | 74.59072 | 17500 ft | 274 kts | 122° |
| 2026-05-06 19:11 | 33.38219 | 74.60924 | 17489 ft | 274 kts | 122° |
| 2026-05-06 19:11 | 33.37111 | 74.62776 | 17490 ft | 273 kts | 122° |
| 2026-05-06 19:12 | 33.36012 | 74.64626 | 17494 ft | 272 kts | 121° |
| 2026-05-06 19:12 | 33.35039 | 74.66564 | 17460 ft | 271 kts | 116° |
| 2026-05-06 19:12 | 33.34161 | 74.68566 | 17465 ft | 271 kts | 113° |
| 2026-05-06 19:12 | 33.33391 | 74.70620 | 17464 ft | 271 kts | 110° |
| 2026-05-06 19:13 | 33.32663 | 74.72696 | 17465 ft | 271 kts | 110° |
| 2026-05-06 19:13 | 33.31944 | 74.74776 | 17466 ft | 271 kts | 109° |
| 2026-05-06 19:13 | 33.31227 | 74.76857 | 17464 ft | 271 kts | 109° |
| 2026-05-06 19:13 | 33.30519 | 74.78911 | 17476 ft | 271 kts | 109° |
| 2026-05-06 19:14 | 33.29803 | 74.80995 | 17475 ft | 271 kts | 109° |
| 2026-05-06 19:14 | 33.29085 | 74.83079 | 17475 ft | 271 kts | 109° |
| 2026-05-06 19:14 | 33.28372 | 74.85156 | 17465 ft | 269 kts | 109° |
| 2026-05-06 19:14 | 33.27661 | 74.87227 | 17440 ft | 271 kts | 110° |
| 2026-05-06 19:15 | 33.26951 | 74.89331 | 17439 ft | 274 kts | 109° |
| 2026-05-06 19:15 | 33.26241 | 74.91447 | 17445 ft | 275 kts | 109° |
| 2026-05-06 19:15 | 33.25529 | 74.93569 | 17441 ft | 275 kts | 109° |
| 2026-05-06 19:15 | 33.24817 | 74.95694 | 17440 ft | 275 kts | 109° |
| 2026-05-06 19:16 | 33.24102 | 74.97818 | 17440 ft | 276 kts | 109° |
| 2026-05-06 19:16 | 33.23385 | 74.99945 | 17437 ft | 276 kts | 110° |
| 2026-05-06 19:16 | 33.22210 | 75.01745 | 17432 ft | 281 kts | 142° |
| 2026-05-06 19:16 | 33.20476 | 75.02827 | 17442 ft | 283 kts | 155° |
| 2026-05-06 19:17 | 33.18686 | 75.03806 | 17408 ft | 283 kts | 151° |
| 2026-05-06 19:17 | 33.16997 | 75.05002 | 17404 ft | 280 kts | 144° |
| 2026-05-06 19:17 | 33.15397 | 75.06304 | 17418 ft | 277 kts | 143° |
| 2026-05-06 19:17 | 33.13900 | 75.07740 | 17437 ft | 275 kts | 137° |
| 2026-05-06 19:18 | 33.12436 | 75.09222 | 17435 ft | 276 kts | 138° |
| 2026-05-06 19:18 | 33.10957 | 75.10689 | 17434 ft | 277 kts | 139° |
| 2026-05-06 19:18 | 33.09466 | 75.12147 | 17399 ft | 276 kts | 139° |
| 2026-05-06 19:18 | 33.07981 | 75.13606 | 17392 ft | 276 kts | 138° |
| 2026-05-06 19:19 | 33.06502 | 75.15066 | 17393 ft | 276 kts | 139° |
| 2026-05-06 19:19 | 33.05019 | 75.16526 | 17395 ft | 276 kts | 138° |
| 2026-05-06 19:19 | 33.03534 | 75.17986 | 17397 ft | 276 kts | 138° |
| 2026-05-06 19:19 | 33.02051 | 75.19445 | 17397 ft | 277 kts | 138° |
| 2026-05-06 19:20 | 33.00584 | 75.20886 | 17360 ft | 276 kts | 139° |
| 2026-05-06 19:20 | 32.99098 | 75.22346 | 17398 ft | 277 kts | 139° |
| 2026-05-06 19:20 | 32.97613 | 75.23805 | 17399 ft | 277 kts | 138° |
| 2026-05-06 19:20 | 32.96124 | 75.25267 | 17396 ft | 277 kts | 138° |
| 2026-05-06 19:21 | 32.94636 | 75.26727 | 17402 ft | 278 kts | 139° |
| 2026-05-06 19:21 | 32.93143 | 75.28192 | 17400 ft | 278 kts | 138° |
| 2026-05-06 19:21 | 32.91651 | 75.29654 | 17396 ft | 277 kts | 138° |
| 2026-05-06 19:21 | 32.90165 | 75.31108 | 17400 ft | 277 kts | 138° |
| 2026-05-06 19:22 | 32.88676 | 75.32567 | 17398 ft | 278 kts | 139° |
| 2026-05-06 19:22 | 32.87181 | 75.34033 | 17324 ft | 280 kts | 139° |
| 2026-05-06 19:22 | 32.85672 | 75.35510 | 17204 ft | 281 kts | 139° |
| 2026-05-06 19:22 | 32.84154 | 75.36993 | 17056 ft | 283 kts | 139° |
| 2026-05-06 19:23 | 32.82633 | 75.38480 | 16879 ft | 284 kts | 139° |
| 2026-05-06 19:23 | 32.81103 | 75.39974 | 16730 ft | 285 kts | 139° |
| 2026-05-06 19:23 | 32.79549 | 75.41492 | 16577 ft | 286 kts | 138° |
| 2026-05-06 19:23 | 32.78534 | 75.42484 | 16480 ft | 285 kts | 139° |
| 2026-05-06 19:24 | 32.77002 | 75.43980 | 16341 ft | 284 kts | 138° |
| 2026-05-06 19:24 | 32.75482 | 75.45461 | 16191 ft | 282 kts | 139° |
| 2026-05-06 19:24 | 32.73990 | 75.46967 | 16046 ft | 280 kts | 133° |
| 2026-05-06 19:24 | 32.72537 | 75.49460 | 15813 ft | 276 kts | 113° |
| 2026-05-06 19:25 | 32.71998 | 75.50862 | 15755 ft | 276 kts | 112° |
| 2026-05-06 19:25 | 32.71199 | 75.52938 | 15611 ft | 277 kts | 112° |
| 2026-05-06 19:25 | 32.70392 | 75.55012 | 15466 ft | 276 kts | 112° |
| 2026-05-06 19:25 | 32.69586 | 75.57079 | 15325 ft | 276 kts | 112° |
| 2026-05-06 19:26 | 32.68785 | 75.59146 | 15179 ft | 276 kts | 112° |
| 2026-05-06 19:26 | 32.67982 | 75.61214 | 15036 ft | 276 kts | 112° |
| 2026-05-06 19:26 | 32.67178 | 75.63281 | 14914 ft | 276 kts | 112° |
| 2026-05-06 19:26 | 32.66376 | 75.65336 | 14946 ft | 272 kts | 112° |
| 2026-05-06 19:27 | 32.65583 | 75.67370 | 14950 ft | 271 kts | 112° |
| 2026-05-06 19:27 | 32.64794 | 75.69400 | 14918 ft | 270 kts | 112° |
| 2026-05-06 19:27 | 32.64015 | 75.71399 | 14917 ft | 270 kts | 112° |
| 2026-05-06 19:27 | 32.63226 | 75.73421 | 14917 ft | 270 kts | 112° |
| 2026-05-06 19:28 | 32.62434 | 75.75447 | 14910 ft | 271 kts | 111° |
| 2026-05-06 19:28 | 32.61642 | 75.77475 | 14914 ft | 271 kts | 111° |
| 2026-05-06 19:28 | 32.60851 | 75.79503 | 14948 ft | 270 kts | 112° |
| 2026-05-06 19:28 | 32.60065 | 75.81514 | 14945 ft | 268 kts | 113° |
| 2026-05-06 19:29 | 32.59279 | 75.83518 | 14948 ft | 268 kts | 112° |
| 2026-05-06 19:29 | 32.58496 | 75.85520 | 14944 ft | 268 kts | 113° |
| 2026-05-06 19:29 | 32.57711 | 75.87517 | 14946 ft | 266 kts | 113° |
| 2026-05-06 19:29 | 32.56932 | 75.89507 | 14911 ft | 266 kts | 112° |
| 2026-05-06 19:30 | 32.56153 | 75.91502 | 14911 ft | 267 kts | 112° |
| 2026-05-06 19:30 | 32.55370 | 75.93495 | 14951 ft | 267 kts | 113° |
| 2026-05-06 19:30 | 32.54579 | 75.95488 | 14949 ft | 267 kts | 115° |
| 2026-05-06 19:30 | 32.53496 | 75.97289 | 14942 ft | 271 kts | 131° |
| 2026-05-06 19:31 | 32.52035 | 75.98691 | 14944 ft | 271 kts | 144° |
| 2026-05-06 19:31 | 32.50463 | 75.99923 | 14942 ft | 269 kts | 144° |
| 2026-05-06 19:31 | 32.47329 | 76.02399 | 14913 ft | 271 kts | 144° |
| 2026-05-06 19:32 | 32.45758 | 76.03634 | 14911 ft | 270 kts | 145° |
| 2026-05-06 19:32 | 32.44197 | 76.04865 | 14918 ft | 271 kts | 144° |
| 2026-05-06 19:32 | 32.42630 | 76.06110 | 14920 ft | 272 kts | 144° |
| 2026-05-06 19:32 | 32.41054 | 76.07352 | 14965 ft | 273 kts | 145° |
| 2026-05-06 19:33 | 32.39472 | 76.08595 | 14966 ft | 273 kts | 144° |
| 2026-05-06 19:33 | 32.37886 | 76.09843 | 14934 ft | 273 kts | 144° |
| 2026-05-06 19:33 | 32.36300 | 76.11092 | 14937 ft | 275 kts | 144° |
| 2026-05-06 19:33 | 32.34710 | 76.12343 | 14933 ft | 275 kts | 145° |
| 2026-05-06 19:34 | 32.33118 | 76.13595 | 14935 ft | 275 kts | 144° |
| 2026-05-06 19:34 | 32.31528 | 76.14845 | 14936 ft | 275 kts | 145° |
| 2026-05-06 19:34 | 32.29943 | 76.16090 | 14931 ft | 273 kts | 145° |
| 2026-05-06 19:34 | 32.28368 | 76.17328 | 14914 ft | 271 kts | 145° |
| 2026-05-06 19:35 | 32.26795 | 76.18564 | 14918 ft | 271 kts | 144° |
| 2026-05-06 19:35 | 32.25229 | 76.19793 | 14914 ft | 270 kts | 145° |
| 2026-05-06 19:35 | 32.23660 | 76.21021 | 14914 ft | 270 kts | 144° |
| 2026-05-06 19:35 | 32.22094 | 76.22250 | 14960 ft | 270 kts | 145° |
| 2026-05-06 19:36 | 32.20525 | 76.23482 | 14960 ft | 271 kts | 145° |
| 2026-05-06 19:36 | 32.18957 | 76.24714 | 14916 ft | 272 kts | 144° |
| 2026-05-06 19:36 | 32.17556 | 76.26198 | 14790 ft | 271 kts | 128° |
| 2026-05-06 19:36 | 32.16557 | 76.28078 | 14692 ft | 270 kts | 112° |
| 2026-05-06 19:37 | 32.15974 | 76.30170 | 14598 ft | 269 kts | 104° |
| 2026-05-06 19:37 | 32.15464 | 76.32295 | 14510 ft | 269 kts | 104° |
| 2026-05-06 19:37 | 32.14943 | 76.34417 | 14415 ft | 269 kts | 105° |
| 2026-05-06 19:37 | 32.14423 | 76.36541 | 14366 ft | 270 kts | 104° |
| 2026-05-06 19:38 | 32.13910 | 76.38650 | 14271 ft | 271 kts | 104° |
| 2026-05-06 19:38 | 32.13389 | 76.40786 | 14185 ft | 271 kts | 104° |
| 2026-05-06 19:38 | 32.12865 | 76.42928 | 14093 ft | 272 kts | 104° |
| 2026-05-06 19:38 | 32.12340 | 76.45071 | 14002 ft | 272 kts | 104° |
| 2026-05-06 19:39 | 32.11816 | 76.47209 | 13913 ft | 272 kts | 104° |
| 2026-05-06 19:39 | 32.11292 | 76.49348 | 13821 ft | 271 kts | 104° |
| 2026-05-06 19:39 | 32.10768 | 76.51487 | 13734 ft | 270 kts | 105° |
| 2026-05-06 19:39 | 32.10246 | 76.53611 | 13633 ft | 269 kts | 105° |
| 2026-05-06 19:40 | 32.09727 | 76.55726 | 13529 ft | 268 kts | 105° |
| 2026-05-06 19:40 | 32.09207 | 76.57840 | 13426 ft | 268 kts | 105° |
| 2026-05-06 19:40 | 32.08686 | 76.59957 | 13324 ft | 268 kts | 105° |
| 2026-05-06 19:40 | 32.08166 | 76.62068 | 13221 ft | 268 kts | 105° |
| 2026-05-06 19:41 | 32.07646 | 76.64179 | 13121 ft | 268 kts | 105° |
| 2026-05-06 19:41 | 32.07126 | 76.66289 | 13059 ft | 268 kts | 105° |
| 2026-05-06 19:41 | 32.06604 | 76.68399 | 12957 ft | 268 kts | 105° |
| 2026-05-06 19:41 | 32.06085 | 76.70503 | 12858 ft | 268 kts | 105° |
| 2026-05-06 19:42 | 32.05565 | 76.72608 | 12758 ft | 268 kts | 105° |
| 2026-05-06 19:42 | 32.05043 | 76.74718 | 12656 ft | 268 kts | 105° |
| 2026-05-06 19:42 | 32.04522 | 76.76820 | 12556 ft | 267 kts | 105° |
| 2026-05-06 19:42 | 32.04003 | 76.78914 | 12524 ft | 265 kts | 105° |
| 2026-05-06 19:43 | 32.03488 | 76.80990 | 12564 ft | 263 kts | 105° |
| 2026-05-06 19:43 | 32.02974 | 76.83062 | 12530 ft | 263 kts | 105° |
| 2026-05-06 19:43 | 32.02461 | 76.85131 | 12528 ft | 263 kts | 106° |
| 2026-05-06 19:43 | 32.01946 | 76.87200 | 12525 ft | 263 kts | 105° |
| 2026-05-06 19:44 | 32.01434 | 76.89263 | 12526 ft | 262 kts | 105° |
| 2026-05-06 19:44 | 32.00920 | 76.91323 | 12525 ft | 262 kts | 106° |
| 2026-05-06 19:44 | 32.00407 | 76.93381 | 12519 ft | 262 kts | 105° |
| 2026-05-06 19:44 | 31.99896 | 76.95433 | 12562 ft | 261 kts | 105° |
| 2026-05-06 19:45 | 31.99382 | 76.97488 | 12565 ft | 262 kts | 105° |
| 2026-05-06 19:45 | 31.98869 | 76.99548 | 12563 ft | 262 kts | 106° |
| 2026-05-06 19:45 | 31.98356 | 77.01603 | 12567 ft | 262 kts | 106° |
| 2026-05-06 19:45 | 31.97840 | 77.03664 | 12567 ft | 262 kts | 105° |
| 2026-05-06 19:46 | 31.97326 | 77.05718 | 12561 ft | 261 kts | 105° |
| 2026-05-06 19:46 | 31.96813 | 77.07769 | 12562 ft | 261 kts | 106° |
| 2026-05-06 19:46 | 31.96225 | 77.09796 | 12592 ft | 262 kts | 116° |
| 2026-05-06 19:46 | 31.95014 | 77.11371 | 12564 ft | 262 kts | 144° |
| 2026-05-06 19:47 | 31.93644 | 77.12794 | 12492 ft | 264 kts | 134° |
| 2026-05-06 19:47 | 31.92087 | 77.13911 | 12380 ft | 267 kts | 163° |
| 2026-05-06 19:47 | 31.90293 | 77.14457 | 12285 ft | 266 kts | 162° |
| 2026-05-06 19:47 | 31.88530 | 77.15139 | 12249 ft | 265 kts | 160° |
| 2026-05-06 19:48 | 31.86835 | 77.15977 | 12251 ft | 264 kts | 156° |
| 2026-05-06 19:48 | 31.85149 | 77.16822 | 12227 ft | 263 kts | 156° |
| 2026-05-06 19:48 | 31.83460 | 77.17657 | 12228 ft | 263 kts | 157° |
| 2026-05-06 19:48 | 31.81789 | 77.18473 | 12228 ft | 263 kts | 158° |
| 2026-05-06 19:49 | 31.80032 | 77.19179 | 12229 ft | 264 kts | 162° |
| 2026-05-06 19:49 | 31.78280 | 77.19810 | 12229 ft | 263 kts | 163° |
| 2026-05-06 19:49 | 31.76525 | 77.20433 | 12229 ft | 263 kts | 163° |
| 2026-05-06 19:49 | 31.74772 | 77.21054 | 12210 ft | 263 kts | 163° |
| 2026-05-06 19:50 | 31.73035 | 77.21723 | 12163 ft | 263 kts | 163° |
| 2026-05-06 19:50 | 31.71291 | 77.22011 | 12022 ft | 234 kts | 177° |
| 2026-05-06 19:50 | 31.69693 | 77.22021 | 11460 ft | 229 kts | 184° |
| 2026-05-06 19:50 | 31.68104 | 77.21859 | 10826 ft | 228 kts | 186° |
| 2026-05-06 19:51 | 31.66576 | 77.21895 | 10764 ft | 220 kts | 173° |
| 2026-05-06 19:51 | 31.65165 | 77.22422 | 11141 ft | 197 kts | 141° |
| 2026-05-06 19:51 | 31.64572 | 77.23744 | 11752 ft | 190 kts | 98° |
| 2026-05-06 19:51 | 31.64901 | 77.25220 | 11545 ft | 194 kts | 57° |
| 2026-05-06 19:52 | 31.65943 | 77.26184 | 10853 ft | 194 kts | 16° |
| 2026-05-06 19:52 | 31.67243 | 77.26079 | 10557 ft | 190 kts | 342° |
| 2026-05-06 19:52 | 31.68507 | 77.25495 | 9585 ft | 200 kts | 337° |
| 2026-05-06 19:52 | 31.69783 | 77.24763 | 8564 ft | 203 kts | 330° |
| 2026-05-06 19:53 | 31.70878 | 77.23743 | 7499 ft | 206 kts | 313° |
| 2026-05-06 19:53 | 31.71801 | 77.22473 | 6668 ft | 200 kts | 314° |
| 2026-05-06 19:53 | 31.72881 | 77.21463 | 5699 ft | 213 kts | 329° |
| 2026-05-06 19:53 | 31.74154 | 77.20730 | 5413 ft | 193 kts | 338° |
| 2026-05-06 19:54 | 31.75350 | 77.20216 | 5326 ft | 170 kts | 342° |
| 2026-05-06 19:54 | 31.76433 | 77.19778 | 5104 ft | 159 kts | 341° |
| 2026-05-06 19:54 | 31.77362 | 77.19403 | 4953 ft | 123 kts | 345° |
| 2026-05-06 19:54 | 31.78126 | 77.19067 | 4736 ft | 125 kts | 342° |
| 2026-05-06 19:55 | 31.78993 | 77.18794 | 4570 ft | 128 kts | 349° |
| 2026-05-06 19:55 | 31.79844 | 77.18543 | 4397 ft | 127 kts | 347° |
| 2026-05-06 19:55 | 31.80690 | 77.18285 | 4193 ft | 124 kts | 347° |
| 2026-05-06 19:55 | 31.81496 | 77.17999 | 4077 ft | 118 kts | 344° |
| 2026-05-06 19:56 | 31.82275 | 77.17682 | 4052 ft | 119 kts | 340° |
| 2026-05-06 19:56 | 31.83055 | 77.17333 | 4038 ft | 120 kts | 343° |
| 2026-05-06 19:56 | 31.83832 | 77.16994 | 4018 ft | 117 kts | 346° |
| 2026-05-06 19:56 | 31.84572 | 77.16687 | 3996 ft | 108 kts | 339° |
| 2026-05-06 19:57 | 31.85245 | 77.16382 | 3906 ft | 99 kts | 343° |
| 2026-05-06 19:57 | 31.85900 | 77.16136 | 3872 ft | 98 kts | 346° |
| 2026-05-06 19:57 | 31.86535 | 77.15910 | 3816 ft | 92 kts | 349° |
| 2026-05-06 19:57 | 31.87128 | 77.15674 | 3709 ft | 88 kts | 341° |
| 2026-05-06 19:58 | 31.87664 | 77.15435 | 3671 ft | 74 kts | 338° |
| 2026-05-06 19:58 | 31.87831 | 77.15359 | 3676 ft | 1 kts | 346° |
| 2026-05-06 19:58 | 31.87815 | 77.15325 | 3675 ft | 14 kts | 219° |
| 2026-05-06 19:58 | 31.87781 | 77.15256 | 3675 ft | 7 kts | 244° |
| 2026-05-06 19:59 | 31.87751 | 77.15237 | 3674 ft | 9 kts | 179° |
| 2026-05-06 19:59 | 31.87734 | 77.15242 | 3674 ft | 1 kts | 86° |
| 2026-05-06 19:59 | 31.87735 | 77.15243 | 3674 ft | 0 kts | 66° |
| 2026-05-06 20:00 | 31.87734 | 77.15243 | 3673 ft | 0 kts | 66° |